sensor_id;sensor_type;location;lat;lon;timestamp;P1;durP1;ratioP1;P2;durP2;ratioP2
1404;SDS011;697;51.114;6.542;2023-04-15T00:01:56;5.37;;;4.00;;
1404;SDS011;697;51.114;6.542;2023-04-15T00:04:24;7.93;;;3.53;;
1404;SDS011;697;51.114;6.542;2023-04-15T00:06:51;5.87;;;3.53;;
1404;SDS011;697;51.114;6.542;2023-04-15T00:09:18;6.90;;;3.87;;
1404;SDS011;697;51.114;6.542;2023-04-15T00:11:45;3.70;;;3.37;;
1404;SDS011;697;51.114;6.542;2023-04-15T00:14:12;5.97;;;4.13;;
1404;SDS011;697;51.114;6.542;2023-04-15T00:16:40;7.30;;;4.10;;
1404;SDS011;697;51.114;6.542;2023-04-15T00:19:07;6.00;;;3.20;;
1404;SDS011;697;51.114;6.542;2023-04-15T00:21:34;4.73;;;3.10;;
1404;SDS011;697;51.114;6.542;2023-04-15T00:24:01;4.60;;;3.50;;
1404;SDS011;697;51.114;6.542;2023-04-15T00:26:27;4.57;;;3.63;;
1404;SDS011;697;51.114;6.542;2023-04-15T00:28:54;4.70;;;3.83;;
1404;SDS011;697;51.114;6.542;2023-04-15T00:31:21;7.20;;;3.70;;
1404;SDS011;697;51.114;6.542;2023-04-15T00:33:49;5.07;;;4.27;;
1404;SDS011;697;51.114;6.542;2023-04-15T00:36:16;4.93;;;3.53;;
1404;SDS011;697;51.114;6.542;2023-04-15T00:38:43;4.50;;;4.07;;
1404;SDS011;697;51.114;6.542;2023-04-15T00:41:10;4.70;;;3.80;;
1404;SDS011;697;51.114;6.542;2023-04-15T00:43:37;5.53;;;3.77;;
1404;SDS011;697;51.114;6.542;2023-04-15T00:46:03;5.17;;;4.43;;
1404;SDS011;697;51.114;6.542;2023-04-15T00:48:32;4.30;;;3.77;;
1404;SDS011;697;51.114;6.542;2023-04-15T00:51:00;4.23;;;3.83;;
1404;SDS011;697;51.114;6.542;2023-04-15T00:53:27;4.80;;;4.30;;
1404;SDS011;697;51.114;6.542;2023-04-15T00:55:53;6.53;;;4.10;;
1404;SDS011;697;51.114;6.542;2023-04-15T00:58:21;6.20;;;4.20;;
1404;SDS011;697;51.114;6.542;2023-04-15T01:00:48;4.40;;;3.40;;
1404;SDS011;697;51.114;6.542;2023-04-15T01:03:18;6.67;;;4.30;;
1404;SDS011;697;51.114;6.542;2023-04-15T01:05:45;6.60;;;4.40;;
1404;SDS011;697;51.114;6.542;2023-04-15T01:08:13;3.83;;;3.53;;
1404;SDS011;697;51.114;6.542;2023-04-15T01:10:40;6.10;;;4.40;;
1404;SDS011;697;51.114;6.542;2023-04-15T01:13:08;4.40;;;4.00;;
1404;SDS011;697;51.114;6.542;2023-04-15T01:15:34;5.77;;;4.20;;
1404;SDS011;697;51.114;6.542;2023-04-15T01:18:01;5.67;;;4.87;;
1404;SDS011;697;51.114;6.542;2023-04-15T01:20:28;5.63;;;4.17;;
1404;SDS011;697;51.114;6.542;2023-04-15T01:22:55;5.27;;;4.77;;
1404;SDS011;697;51.114;6.542;2023-04-15T01:25:28;4.23;;;3.83;;
1404;SDS011;697;51.114;6.542;2023-04-15T01:27:57;4.90;;;3.80;;
1404;SDS011;697;51.114;6.542;2023-04-15T01:30:24;3.83;;;3.43;;
1404;SDS011;697;51.114;6.542;2023-04-15T01:32:51;6.43;;;3.33;;
1404;SDS011;697;51.114;6.542;2023-04-15T01:35:18;5.07;;;3.70;;
1404;SDS011;697;51.114;6.542;2023-04-15T01:37:46;3.57;;;3.27;;
1404;SDS011;697;51.114;6.542;2023-04-15T01:40:14;3.33;;;3.03;;
1404;SDS011;697;51.114;6.542;2023-04-15T01:42:42;4.50;;;3.53;;
1404;SDS011;697;51.114;6.542;2023-04-15T01:45:09;4.40;;;3.90;;
1404;SDS011;697;51.114;6.542;2023-04-15T01:47:36;4.30;;;3.33;;
1404;SDS011;697;51.114;6.542;2023-04-15T01:50:03;4.07;;;3.53;;
1404;SDS011;697;51.114;6.542;2023-04-15T01:52:31;3.87;;;3.57;;
1404;SDS011;697;51.114;6.542;2023-04-15T01:54:57;7.57;;;3.70;;
1404;SDS011;697;51.114;6.542;2023-04-15T01:57:24;4.03;;;3.70;;
1404;SDS011;697;51.114;6.542;2023-04-15T01:59:52;4.80;;;3.33;;
1404;SDS011;697;51.114;6.542;2023-04-15T02:02:19;3.87;;;3.57;;
1404;SDS011;697;51.114;6.542;2023-04-15T02:04:45;4.10;;;3.10;;
1404;SDS011;697;51.114;6.542;2023-04-15T02:07:12;9.43;;;4.57;;
1404;SDS011;697;51.114;6.542;2023-04-15T02:09:39;5.60;;;4.17;;
1404;SDS011;697;51.114;6.542;2023-04-15T02:12:05;5.47;;;3.97;;
1404;SDS011;697;51.114;6.542;2023-04-15T02:14:32;3.70;;;3.40;;
1404;SDS011;697;51.114;6.542;2023-04-15T02:17:00;6.93;;;4.57;;
1404;SDS011;697;51.114;6.542;2023-04-15T02:19:31;4.40;;;3.90;;
1404;SDS011;697;51.114;6.542;2023-04-15T02:21:58;5.20;;;3.60;;
1404;SDS011;697;51.114;6.542;2023-04-15T02:24:26;6.20;;;4.63;;
1404;SDS011;697;51.114;6.542;2023-04-15T02:26:53;3.93;;;3.20;;
1404;SDS011;697;51.114;6.542;2023-04-15T02:29:19;4.53;;;3.67;;
1404;SDS011;697;51.114;6.542;2023-04-15T02:31:47;6.00;;;4.00;;
1404;SDS011;697;51.114;6.542;2023-04-15T02:34:15;5.67;;;4.07;;
1404;SDS011;697;51.114;6.542;2023-04-15T02:36:41;4.97;;;4.57;;
1404;SDS011;697;51.114;6.542;2023-04-15T02:39:08;4.70;;;4.30;;
1404;SDS011;697;51.114;6.542;2023-04-15T02:41:36;5.80;;;4.27;;
1404;SDS011;697;51.114;6.542;2023-04-15T02:44:03;5.97;;;4.80;;
1404;SDS011;697;51.114;6.542;2023-04-15T02:46:31;5.40;;;4.90;;
1404;SDS011;697;51.114;6.542;2023-04-15T02:48:57;5.63;;;4.80;;
1404;SDS011;697;51.114;6.542;2023-04-15T02:51:28;7.37;;;5.10;;
1404;SDS011;697;51.114;6.542;2023-04-15T02:53:56;6.77;;;4.70;;
1404;SDS011;697;51.114;6.542;2023-04-15T02:56:23;5.70;;;4.90;;
1404;SDS011;697;51.114;6.542;2023-04-15T02:58:50;4.80;;;4.40;;
1404;SDS011;697;51.114;6.542;2023-04-15T03:01:20;5.67;;;3.70;;
1404;SDS011;697;51.114;6.542;2023-04-15T03:03:46;4.27;;;3.47;;
1404;SDS011;697;51.114;6.542;2023-04-15T03:06:13;6.73;;;3.53;;
1404;SDS011;697;51.114;6.542;2023-04-15T03:08:41;3.87;;;3.57;;
1404;SDS011;697;51.114;6.542;2023-04-15T03:11:08;4.20;;;3.83;;
1404;SDS011;697;51.114;6.542;2023-04-15T03:13:35;5.20;;;4.10;;
1404;SDS011;697;51.114;6.542;2023-04-15T03:16:03;4.70;;;4.20;;
1404;SDS011;697;51.114;6.542;2023-04-15T03:18:30;6.50;;;4.70;;
1404;SDS011;697;51.114;6.542;2023-04-15T03:20:57;5.00;;;4.23;;
1404;SDS011;697;51.114;6.542;2023-04-15T03:23:24;5.57;;;4.10;;
1404;SDS011;697;51.114;6.542;2023-04-15T03:25:52;5.10;;;4.60;;
1404;SDS011;697;51.114;6.542;2023-04-15T03:28:21;5.80;;;4.27;;
1404;SDS011;697;51.114;6.542;2023-04-15T03:30:47;5.13;;;4.63;;
1404;SDS011;697;51.114;6.542;2023-04-15T03:33:14;5.57;;;5.07;;
1404;SDS011;697;51.114;6.542;2023-04-15T03:35:41;5.13;;;4.27;;
1404;SDS011;697;51.114;6.542;2023-04-15T03:38:08;7.43;;;4.73;;
1404;SDS011;697;51.114;6.542;2023-04-15T03:40:34;6.57;;;4.53;;
1404;SDS011;697;51.114;6.542;2023-04-15T03:43:02;7.93;;;4.30;;
1404;SDS011;697;51.114;6.542;2023-04-15T03:45:29;4.17;;;3.77;;
1404;SDS011;697;51.114;6.542;2023-04-15T03:47:56;4.40;;;4.10;;
1404;SDS011;697;51.114;6.542;2023-04-15T03:50:23;4.83;;;4.00;;
1404;SDS011;697;51.114;6.542;2023-04-15T03:52:49;4.37;;;3.53;;
1404;SDS011;697;51.114;6.542;2023-04-15T03:55:16;4.47;;;4.00;;
1404;SDS011;697;51.114;6.542;2023-04-15T03:57:43;5.80;;;4.30;;
1404;SDS011;697;51.114;6.542;2023-04-15T04:00:12;5.97;;;4.47;;
1404;SDS011;697;51.114;6.542;2023-04-15T04:02:39;6.10;;;4.40;;
1404;SDS011;697;51.114;6.542;2023-04-15T04:05:06;4.50;;;4.10;;
1404;SDS011;697;51.114;6.542;2023-04-15T04:07:33;5.17;;;4.77;;
1404;SDS011;697;51.114;6.542;2023-04-15T04:10:01;6.43;;;5.20;;
1404;SDS011;697;51.114;6.542;2023-04-15T04:12:28;5.30;;;4.80;;
1404;SDS011;697;51.114;6.542;2023-04-15T04:14:55;10.33;;;4.67;;
1404;SDS011;697;51.114;6.542;2023-04-15T04:17:23;5.20;;;4.60;;
1404;SDS011;697;51.114;6.542;2023-04-15T04:19:50;6.00;;;5.03;;
1404;SDS011;697;51.114;6.542;2023-04-15T04:22:17;7.10;;;4.27;;
1404;SDS011;697;51.114;6.542;2023-04-15T04:24:47;6.57;;;5.97;;
1404;SDS011;697;51.114;6.542;2023-04-15T04:27:14;6.50;;;5.90;;
1404;SDS011;697;51.114;6.542;2023-04-15T04:29:41;10.80;;;6.37;;
1404;SDS011;697;51.114;6.542;2023-04-15T04:32:08;8.20;;;6.23;;
1404;SDS011;697;51.114;6.542;2023-04-15T04:34:36;9.43;;;6.63;;
1404;SDS011;697;51.114;6.542;2023-04-15T04:37:03;6.40;;;5.90;;
1404;SDS011;697;51.114;6.542;2023-04-15T04:39:30;7.20;;;6.60;;
1404;SDS011;697;51.114;6.542;2023-04-15T04:41:57;7.37;;;6.67;;
1404;SDS011;697;51.114;6.542;2023-04-15T04:44:25;6.33;;;5.70;;
1404;SDS011;697;51.114;6.542;2023-04-15T04:46:52;7.17;;;6.03;;
1404;SDS011;697;51.114;6.542;2023-04-15T04:49:18;5.07;;;4.60;;
1404;SDS011;697;51.114;6.542;2023-04-15T04:51:46;4.40;;;4.00;;
1404;SDS011;697;51.114;6.542;2023-04-15T04:54:13;5.50;;;4.03;;
1404;SDS011;697;51.114;6.542;2023-04-15T04:56:40;5.07;;;4.60;;
1404;SDS011;697;51.114;6.542;2023-04-15T04:59:07;4.87;;;4.47;;
1404;SDS011;697;51.114;6.542;2023-04-15T05:01:34;4.93;;;4.53;;
1404;SDS011;697;51.114;6.542;2023-04-15T05:04:01;4.27;;;3.87;;
1404;SDS011;697;51.114;6.542;2023-04-15T05:06:28;7.43;;;3.80;;
1404;SDS011;697;51.114;6.542;2023-04-15T05:08:58;6.27;;;4.67;;
1404;SDS011;697;51.114;6.542;2023-04-15T05:11:26;7.70;;;4.80;;
1404;SDS011;697;51.114;6.542;2023-04-15T05:13:52;5.03;;;4.53;;
1404;SDS011;697;51.114;6.542;2023-04-15T05:16:19;5.77;;;5.17;;
1404;SDS011;697;51.114;6.542;2023-04-15T05:18:46;8.30;;;5.20;;
1404;SDS011;697;51.114;6.542;2023-04-15T05:21:12;5.70;;;5.20;;
1404;SDS011;697;51.114;6.542;2023-04-15T05:23:39;5.80;;;5.30;;
1404;SDS011;697;51.114;6.542;2023-04-15T05:26:07;7.33;;;5.60;;
1404;SDS011;697;51.114;6.542;2023-04-15T05:28:34;6.30;;;5.70;;
1404;SDS011;697;51.114;6.542;2023-04-15T05:31:01;6.23;;;5.40;;
1404;SDS011;697;51.114;6.542;2023-04-15T05:33:28;7.13;;;5.70;;
1404;SDS011;697;51.114;6.542;2023-04-15T05:35:54;10.70;;;5.83;;
1404;SDS011;697;51.114;6.542;2023-04-15T05:38:21;7.03;;;6.33;;
1404;SDS011;697;51.114;6.542;2023-04-15T05:40:48;8.53;;;6.37;;
1404;SDS011;697;51.114;6.542;2023-04-15T05:43:16;7.53;;;6.67;;
1404;SDS011;697;51.114;6.542;2023-04-15T05:45:42;7.97;;;6.73;;
1404;SDS011;697;51.114;6.542;2023-04-15T05:48:09;8.47;;;6.80;;
1404;SDS011;697;51.114;6.542;2023-04-15T05:50:36;7.67;;;6.87;;
1404;SDS011;697;51.114;6.542;2023-04-15T05:53:05;7.50;;;6.67;;
1404;SDS011;697;51.114;6.542;2023-04-15T05:55:32;6.77;;;6.07;;
1404;SDS011;697;51.114;6.542;2023-04-15T05:57:59;7.40;;;5.50;;
1404;SDS011;697;51.114;6.542;2023-04-15T06:00:27;8.63;;;6.40;;
1404;SDS011;697;51.114;6.542;2023-04-15T06:02:54;7.83;;;6.63;;
1404;SDS011;697;51.114;6.542;2023-04-15T06:05:21;6.97;;;6.13;;
1404;SDS011;697;51.114;6.542;2023-04-15T06:07:48;10.77;;;6.80;;
1404;SDS011;697;51.114;6.542;2023-04-15T06:10:15;8.20;;;7.40;;
1404;SDS011;697;51.114;6.542;2023-04-15T06:12:42;9.03;;;8.10;;
1404;SDS011;697;51.114;6.542;2023-04-15T06:15:09;9.60;;;7.90;;
1404;SDS011;697;51.114;6.542;2023-04-15T06:17:37;9.43;;;7.97;;
1404;SDS011;697;51.114;6.542;2023-04-15T06:20:04;10.40;;;7.83;;
1404;SDS011;697;51.114;6.542;2023-04-15T06:22:32;8.93;;;7.47;;
1404;SDS011;697;51.114;6.542;2023-04-15T06:24:59;9.70;;;8.80;;
1404;SDS011;697;51.114;6.542;2023-04-15T06:27:26;10.60;;;9.60;;
1404;SDS011;697;51.114;6.542;2023-04-15T06:29:52;12.23;;;11.00;;
1404;SDS011;697;51.114;6.542;2023-04-15T06:32:19;14.00;;;10.67;;
1404;SDS011;697;51.114;6.542;2023-04-15T06:34:47;11.03;;;9.80;;
1404;SDS011;697;51.114;6.542;2023-04-15T06:37:14;13.53;;;10.90;;
1404;SDS011;697;51.114;6.542;2023-04-15T06:39:41;12.20;;;10.20;;
1404;SDS011;697;51.114;6.542;2023-04-15T06:42:08;13.37;;;11.20;;
1404;SDS011;697;51.114;6.542;2023-04-15T06:44:36;13.73;;;11.20;;
1404;SDS011;697;51.114;6.542;2023-04-15T06:47:02;13.90;;;10.67;;
1404;SDS011;697;51.114;6.542;2023-04-15T06:49:29;12.90;;;9.93;;
1404;SDS011;697;51.114;6.542;2023-04-15T06:51:57;13.30;;;10.63;;
1404;SDS011;697;51.114;6.542;2023-04-15T06:54:24;14.00;;;10.30;;
1404;SDS011;697;51.114;6.542;2023-04-15T06:56:51;10.77;;;9.67;;
1404;SDS011;697;51.114;6.542;2023-04-15T06:59:18;12.47;;;10.10;;
1404;SDS011;697;51.114;6.542;2023-04-15T07:01:44;14.70;;;12.33;;
1404;SDS011;697;51.114;6.542;2023-04-15T07:04:11;13.90;;;12.27;;
1404;SDS011;697;51.114;6.542;2023-04-15T07:06:38;14.00;;;11.70;;
1404;SDS011;697;51.114;6.542;2023-04-15T07:09:07;19.40;;;13.63;;
1404;SDS011;697;51.114;6.542;2023-04-15T07:11:33;14.70;;;13.13;;
1404;SDS011;697;51.114;6.542;2023-04-15T07:14:00;15.63;;;11.80;;
1404;SDS011;697;51.114;6.542;2023-04-15T07:16:27;12.83;;;11.53;;
1404;SDS011;697;51.114;6.542;2023-04-15T07:18:54;14.03;;;12.53;;
1404;SDS011;697;51.114;6.542;2023-04-15T07:21:21;13.40;;;11.93;;
1404;SDS011;697;51.114;6.542;2023-04-15T07:23:48;12.83;;;11.53;;
1404;SDS011;697;51.114;6.542;2023-04-15T07:26:17;17.00;;;13.00;;
1404;SDS011;697;51.114;6.542;2023-04-15T07:28:44;13.70;;;12.17;;
1404;SDS011;697;51.114;6.542;2023-04-15T07:31:11;14.03;;;11.17;;
1404;SDS011;697;51.114;6.542;2023-04-15T07:33:38;13.10;;;11.40;;
1404;SDS011;697;51.114;6.542;2023-04-15T07:36:05;12.30;;;11.00;;
1404;SDS011;697;51.114;6.542;2023-04-15T07:38:32;12.13;;;10.20;;
1404;SDS011;697;51.114;6.542;2023-04-15T07:40:59;9.33;;;8.33;;
1404;SDS011;697;51.114;6.542;2023-04-15T07:43:27;9.70;;;8.70;;
1404;SDS011;697;51.114;6.542;2023-04-15T07:45:54;10.60;;;8.73;;
1404;SDS011;697;51.114;6.542;2023-04-15T07:48:21;10.20;;;9.20;;
1404;SDS011;697;51.114;6.542;2023-04-15T07:50:48;9.30;;;8.40;;
1404;SDS011;697;51.114;6.542;2023-04-15T07:53:14;10.30;;;9.30;;
1404;SDS011;697;51.114;6.542;2023-04-15T07:55:41;10.07;;;9.00;;
1404;SDS011;697;51.114;6.542;2023-04-15T07:58:07;12.77;;;9.67;;
1404;SDS011;697;51.114;6.542;2023-04-15T08:00:36;11.13;;;9.53;;
1404;SDS011;697;51.114;6.542;2023-04-15T08:03:03;10.93;;;8.47;;
1404;SDS011;697;51.114;6.542;2023-04-15T08:05:29;11.30;;;10.20;;
1404;SDS011;697;51.114;6.542;2023-04-15T08:07:57;9.50;;;8.60;;
1404;SDS011;697;51.114;6.542;2023-04-15T08:10:23;11.00;;;9.90;;
1404;SDS011;697;51.114;6.542;2023-04-15T08:12:50;9.60;;;8.70;;
1404;SDS011;697;51.114;6.542;2023-04-15T08:15:18;8.50;;;7.73;;
1404;SDS011;697;51.114;6.542;2023-04-15T08:17:46;8.00;;;7.30;;
1404;SDS011;697;51.114;6.542;2023-04-15T08:20:13;10.00;;;8.40;;
1404;SDS011;697;51.114;6.542;2023-04-15T08:22:40;8.47;;;6.73;;
1404;SDS011;697;51.114;6.542;2023-04-15T08:25:07;7.70;;;6.90;;
1404;SDS011;697;51.114;6.542;2023-04-15T08:27:34;8.07;;;5.90;;
1404;SDS011;697;51.114;6.542;2023-04-15T08:30:01;10.00;;;6.40;;
1404;SDS011;697;51.114;6.542;2023-04-15T08:32:28;6.40;;;5.90;;
1404;SDS011;697;51.114;6.542;2023-04-15T08:34:56;6.83;;;6.23;;
1404;SDS011;697;51.114;6.542;2023-04-15T08:37:23;7.37;;;6.67;;
1404;SDS011;697;51.114;6.542;2023-04-15T08:39:50;6.73;;;6.13;;
1404;SDS011;697;51.114;6.542;2023-04-15T08:42:18;10.03;;;6.87;;
1404;SDS011;697;51.114;6.542;2023-04-15T08:44:50;6.33;;;5.70;;
1404;SDS011;697;51.114;6.542;2023-04-15T08:47:16;6.47;;;5.97;;
1404;SDS011;697;51.114;6.542;2023-04-15T08:49:46;6.97;;;6.37;;
1404;SDS011;697;51.114;6.542;2023-04-15T08:52:19;7.70;;;5.67;;
1404;SDS011;697;51.114;6.542;2023-04-15T08:54:46;5.80;;;5.17;;
1404;SDS011;697;51.114;6.542;2023-04-15T08:57:13;4.40;;;4.00;;
1404;SDS011;697;51.114;6.542;2023-04-15T08:59:40;5.13;;;4.73;;
1404;SDS011;697;51.114;6.542;2023-04-15T09:02:08;5.00;;;4.60;;
1404;SDS011;697;51.114;6.542;2023-04-15T09:04:35;5.10;;;4.70;;
1404;SDS011;697;51.114;6.542;2023-04-15T09:07:02;6.40;;;5.90;;
1404;SDS011;697;51.114;6.542;2023-04-15T09:09:30;6.50;;;5.90;;
1404;SDS011;697;51.114;6.542;2023-04-15T09:11:57;5.90;;;5.40;;
1404;SDS011;697;51.114;6.542;2023-04-15T09:14:23;6.93;;;6.23;;
1404;SDS011;697;51.114;6.542;2023-04-15T09:16:56;10.17;;;6.93;;
1404;SDS011;697;51.114;6.542;2023-04-15T09:19:24;6.90;;;6.20;;
1404;SDS011;697;51.114;6.542;2023-04-15T09:21:51;6.97;;;5.97;;
1404;SDS011;697;51.114;6.542;2023-04-15T09:24:20;6.70;;;6.10;;
1404;SDS011;697;51.114;6.542;2023-04-15T09:26:48;7.97;;;7.27;;
1404;SDS011;697;51.114;6.542;2023-04-15T09:29:18;7.63;;;7.03;;
1404;SDS011;697;51.114;6.542;2023-04-15T09:31:45;6.80;;;5.90;;
1404;SDS011;697;51.114;6.542;2023-04-15T09:34:12;8.17;;;5.47;;
1404;SDS011;697;51.114;6.542;2023-04-15T09:36:50;4.63;;;4.20;;
1404;SDS011;697;51.114;6.542;2023-04-15T09:39:18;5.73;;;5.13;;
1404;SDS011;697;51.114;6.542;2023-04-15T09:41:45;7.20;;;5.17;;
1404;SDS011;697;51.114;6.542;2023-04-15T09:44:22;6.93;;;4.60;;
1404;SDS011;697;51.114;6.542;2023-04-15T09:46:49;5.70;;;4.80;;
1404;SDS011;697;51.114;6.542;2023-04-15T09:49:16;8.77;;;4.33;;
1404;SDS011;697;51.114;6.542;2023-04-15T09:51:43;4.77;;;4.30;;
1404;SDS011;697;51.114;6.542;2023-04-15T09:54:10;4.10;;;2.80;;
1404;SDS011;697;51.114;6.542;2023-04-15T09:56:37;5.57;;;3.80;;
1404;SDS011;697;51.114;6.542;2023-04-15T09:59:06;5.20;;;3.50;;
1404;SDS011;697;51.114;6.542;2023-04-15T10:01:34;4.03;;;3.07;;
1404;SDS011;697;51.114;6.542;2023-04-15T10:04:02;4.43;;;3.43;;
1404;SDS011;697;51.114;6.542;2023-04-15T10:06:29;2.63;;;2.47;;
1404;SDS011;697;51.114;6.542;2023-04-15T10:08:56;2.83;;;2.53;;
1404;SDS011;697;51.114;6.542;2023-04-15T10:11:26;2.83;;;2.50;;
1404;SDS011;697;51.114;6.542;2023-04-15T10:13:54;2.90;;;2.70;;
1404;SDS011;697;51.114;6.542;2023-04-15T10:16:24;2.60;;;2.40;;
1404;SDS011;697;51.114;6.542;2023-04-15T10:18:54;3.53;;;2.77;;
1404;SDS011;697;51.114;6.542;2023-04-15T10:21:22;3.40;;;3.10;;
1404;SDS011;697;51.114;6.542;2023-04-15T10:23:50;3.33;;;3.07;;
1404;SDS011;697;51.114;6.542;2023-04-15T10:26:16;2.90;;;2.70;;
1404;SDS011;697;51.114;6.542;2023-04-15T10:28:43;2.40;;;2.20;;
1404;SDS011;697;51.114;6.542;2023-04-15T10:31:11;1.93;;;1.83;;
1404;SDS011;697;51.114;6.542;2023-04-15T10:33:38;2.00;;;1.90;;
1404;SDS011;697;51.114;6.542;2023-04-15T10:36:08;2.10;;;2.00;;
1404;SDS011;697;51.114;6.542;2023-04-15T10:38:36;2.67;;;2.43;;
1404;SDS011;697;51.114;6.542;2023-04-15T10:41:13;2.10;;;1.90;;
1404;SDS011;697;51.114;6.542;2023-04-15T10:43:44;2.67;;;2.30;;
1404;SDS011;697;51.114;6.542;2023-04-15T10:46:15;2.47;;;2.33;;
1404;SDS011;697;51.114;6.542;2023-04-15T10:48:47;3.60;;;1.87;;
1404;SDS011;697;51.114;6.542;2023-04-15T10:51:16;2.10;;;2.00;;
1404;SDS011;697;51.114;6.542;2023-04-15T10:53:55;2.53;;;2.33;;
1404;SDS011;697;51.114;6.542;2023-04-15T10:56:23;2.90;;;2.70;;
1404;SDS011;697;51.114;6.542;2023-04-15T10:58:50;3.47;;;2.03;;
1404;SDS011;697;51.114;6.542;2023-04-15T11:01:18;2.93;;;2.67;;
1404;SDS011;697;51.114;6.542;2023-04-15T11:03:47;2.60;;;2.43;;
1404;SDS011;697;51.114;6.542;2023-04-15T11:06:15;3.20;;;3.00;;
1404;SDS011;697;51.114;6.542;2023-04-15T11:08:52;3.60;;;3.30;;
1404;SDS011;697;51.114;6.542;2023-04-15T11:11:21;3.50;;;3.10;;
1404;SDS011;697;51.114;6.542;2023-04-15T11:13:48;3.23;;;3.03;;
1404;SDS011;697;51.114;6.542;2023-04-15T11:16:16;2.70;;;2.60;;
1404;SDS011;697;51.114;6.542;2023-04-15T11:18:52;2.83;;;2.63;;
1404;SDS011;697;51.114;6.542;2023-04-15T11:21:21;2.40;;;2.30;;
1404;SDS011;697;51.114;6.542;2023-04-15T11:23:51;2.53;;;2.33;;
1404;SDS011;697;51.114;6.542;2023-04-15T11:26:17;3.00;;;2.30;;
1404;SDS011;697;51.114;6.542;2023-04-15T11:28:45;2.90;;;2.70;;
1404;SDS011;697;51.114;6.542;2023-04-15T11:31:12;2.47;;;2.37;;
1404;SDS011;697;51.114;6.542;2023-04-15T11:33:44;2.80;;;2.60;;
1404;SDS011;697;51.114;6.542;2023-04-15T11:36:12;2.80;;;2.60;;
1404;SDS011;697;51.114;6.542;2023-04-15T11:38:42;4.10;;;3.80;;
1404;SDS011;697;51.114;6.542;2023-04-15T11:41:10;3.83;;;3.53;;
1404;SDS011;697;51.114;6.542;2023-04-15T11:43:37;3.20;;;3.00;;
1404;SDS011;697;51.114;6.542;2023-04-15T11:46:03;3.27;;;3.07;;
1404;SDS011;697;51.114;6.542;2023-04-15T11:48:31;4.00;;;3.70;;
1404;SDS011;697;51.114;6.542;2023-04-15T11:51:00;3.30;;;3.07;;
1404;SDS011;697;51.114;6.542;2023-04-15T11:53:37;4.83;;;4.43;;
1404;SDS011;697;51.114;6.542;2023-04-15T11:56:08;2.53;;;2.40;;
1404;SDS011;697;51.114;6.542;2023-04-15T11:58:36;3.37;;;3.07;;
1404;SDS011;697;51.114;6.542;2023-04-15T12:01:04;3.10;;;2.90;;
1404;SDS011;697;51.114;6.542;2023-04-15T12:03:35;3.67;;;2.67;;
1404;SDS011;697;51.114;6.542;2023-04-15T12:06:07;2.40;;;2.20;;
1404;SDS011;697;51.114;6.542;2023-04-15T12:08:55;2.97;;;2.77;;
1404;SDS011;697;51.114;6.542;2023-04-15T12:11:36;3.30;;;3.00;;
1404;SDS011;697;51.114;6.542;2023-04-15T12:14:19;3.23;;;2.93;;
1404;SDS011;697;51.114;6.542;2023-04-15T12:16:49;8.00;;;7.30;;
1404;SDS011;697;51.114;6.542;2023-04-15T12:19:21;8.70;;;7.90;;
1404;SDS011;697;51.114;6.542;2023-04-15T12:21:49;10.60;;;9.70;;
1404;SDS011;697;51.114;6.542;2023-04-15T12:24:19;8.83;;;8.00;;
1404;SDS011;697;51.114;6.542;2023-04-15T12:26:49;5.80;;;5.23;;
1404;SDS011;697;51.114;6.542;2023-04-15T12:29:17;4.40;;;4.10;;
1404;SDS011;697;51.114;6.542;2023-04-15T12:31:45;4.80;;;4.40;;
1404;SDS011;697;51.114;6.542;2023-04-15T12:34:14;4.30;;;4.00;;
1404;SDS011;697;51.114;6.542;2023-04-15T12:36:41;5.33;;;4.70;;
1404;SDS011;697;51.114;6.542;2023-04-15T12:39:08;4.17;;;3.80;;
1404;SDS011;697;51.114;6.542;2023-04-15T12:41:35;3.90;;;3.60;;
1404;SDS011;697;51.114;6.542;2023-04-15T12:44:03;3.53;;;3.20;;
1404;SDS011;697;51.114;6.542;2023-04-15T12:46:30;3.30;;;3.00;;
1404;SDS011;697;51.114;6.542;2023-04-15T12:48:57;4.17;;;3.73;;
1404;SDS011;697;51.114;6.542;2023-04-15T12:51:24;3.90;;;3.47;;
1404;SDS011;697;51.114;6.542;2023-04-15T12:53:51;4.70;;;3.43;;
1404;SDS011;697;51.114;6.542;2023-04-15T12:56:17;3.57;;;3.27;;
1404;SDS011;697;51.114;6.542;2023-04-15T12:58:44;3.03;;;2.83;;
1404;SDS011;697;51.114;6.542;2023-04-15T13:01:12;3.67;;;3.17;;
1404;SDS011;697;51.114;6.542;2023-04-15T13:03:39;3.20;;;2.90;;
1404;SDS011;697;51.114;6.542;2023-04-15T13:06:06;4.53;;;3.63;;
1404;SDS011;697;51.114;6.542;2023-04-15T13:08:33;2.90;;;2.70;;
1404;SDS011;697;51.114;6.542;2023-04-15T13:10:59;3.27;;;2.97;;
1404;SDS011;697;51.114;6.542;2023-04-15T13:13:26;2.97;;;2.40;;
1404;SDS011;697;51.114;6.542;2023-04-15T13:15:53;2.83;;;2.63;;
1404;SDS011;697;51.114;6.542;2023-04-15T13:18:21;2.80;;;2.60;;
1404;SDS011;697;51.114;6.542;2023-04-15T13:20:48;2.50;;;2.30;;
1404;SDS011;697;51.114;6.542;2023-04-15T13:23:16;2.80;;;1.90;;
1404;SDS011;697;51.114;6.542;2023-04-15T13:25:42;2.53;;;2.33;;
1404;SDS011;697;51.114;6.542;2023-04-15T13:28:09;3.70;;;3.37;;
1404;SDS011;697;51.114;6.542;2023-04-15T13:30:37;2.77;;;2.57;;
1404;SDS011;697;51.114;6.542;2023-04-15T13:33:04;3.30;;;2.83;;
1404;SDS011;697;51.114;6.542;2023-04-15T13:35:32;3.30;;;3.10;;
1404;SDS011;697;51.114;6.542;2023-04-15T13:37:59;2.73;;;2.53;;
1404;SDS011;697;51.114;6.542;2023-04-15T13:40:26;3.40;;;3.10;;
1404;SDS011;697;51.114;6.542;2023-04-15T13:42:53;3.00;;;2.80;;
1404;SDS011;697;51.114;6.542;2023-04-15T13:45:20;3.10;;;2.90;;
1404;SDS011;697;51.114;6.542;2023-04-15T13:47:47;3.53;;;2.80;;
1404;SDS011;697;51.114;6.542;2023-04-15T13:50:14;3.40;;;3.20;;
1404;SDS011;697;51.114;6.542;2023-04-15T13:52:42;4.73;;;3.03;;
1404;SDS011;697;51.114;6.542;2023-04-15T13:55:09;8.30;;;3.13;;
1404;SDS011;697;51.114;6.542;2023-04-15T13:57:36;6.67;;;3.40;;
1404;SDS011;697;51.114;6.542;2023-04-15T14:00:03;3.40;;;3.10;;
1404;SDS011;697;51.114;6.542;2023-04-15T14:02:30;2.77;;;2.57;;
1404;SDS011;697;51.114;6.542;2023-04-15T14:04:57;3.23;;;2.90;;
1404;SDS011;697;51.114;6.542;2023-04-15T14:07:23;3.47;;;3.17;;
1404;SDS011;697;51.114;6.542;2023-04-15T14:09:52;3.70;;;2.80;;
1404;SDS011;697;51.114;6.542;2023-04-15T14:12:18;2.80;;;2.60;;
1404;SDS011;697;51.114;6.542;2023-04-15T14:14:45;3.63;;;3.10;;
1404;SDS011;697;51.114;6.542;2023-04-15T14:17:12;3.27;;;3.07;;
1404;SDS011;697;51.114;6.542;2023-04-15T14:19:38;5.07;;;4.27;;
1404;SDS011;697;51.114;6.542;2023-04-15T14:22:05;5.00;;;4.50;;
1404;SDS011;697;51.114;6.542;2023-04-15T14:24:32;4.37;;;3.97;;
1404;SDS011;697;51.114;6.542;2023-04-15T14:27:00;4.77;;;4.30;;
1404;SDS011;697;51.114;6.542;2023-04-15T14:29:27;5.50;;;3.60;;
1404;SDS011;697;51.114;6.542;2023-04-15T14:31:55;4.07;;;3.23;;
1404;SDS011;697;51.114;6.542;2023-04-15T14:34:23;3.73;;;3.43;;
1404;SDS011;697;51.114;6.542;2023-04-15T14:36:50;5.40;;;4.93;;
1404;SDS011;697;51.114;6.542;2023-04-15T14:39:17;5.27;;;4.33;;
1404;SDS011;697;51.114;6.542;2023-04-15T14:41:44;4.00;;;3.60;;
1404;SDS011;697;51.114;6.542;2023-04-15T14:44:12;4.27;;;3.50;;
1404;SDS011;697;51.114;6.542;2023-04-15T14:46:38;4.00;;;3.23;;
1404;SDS011;697;51.114;6.542;2023-04-15T14:49:05;3.87;;;3.47;;
1404;SDS011;697;51.114;6.542;2023-04-15T14:51:32;3.03;;;2.73;;
1404;SDS011;697;51.114;6.542;2023-04-15T14:53:59;3.37;;;2.70;;
1404;SDS011;697;51.114;6.542;2023-04-15T14:56:26;3.80;;;3.40;;
1404;SDS011;697;51.114;6.542;2023-04-15T14:58:53;4.10;;;3.00;;
1404;SDS011;697;51.114;6.542;2023-04-15T15:01:21;2.60;;;2.40;;
1404;SDS011;697;51.114;6.542;2023-04-15T15:03:47;3.80;;;2.83;;
1404;SDS011;697;51.114;6.542;2023-04-15T15:06:14;3.27;;;2.40;;
1404;SDS011;697;51.114;6.542;2023-04-15T15:08:41;2.60;;;2.30;;
1404;SDS011;697;51.114;6.542;2023-04-15T15:11:08;3.87;;;2.57;;
1404;SDS011;697;51.114;6.542;2023-04-15T15:13:34;2.87;;;2.40;;
1404;SDS011;697;51.114;6.542;2023-04-15T15:16:01;3.30;;;2.53;;
1404;SDS011;697;51.114;6.542;2023-04-15T15:18:30;3.70;;;2.17;;
1404;SDS011;697;51.114;6.542;2023-04-15T15:20:56;2.83;;;2.63;;
1404;SDS011;697;51.114;6.542;2023-04-15T15:23:23;3.47;;;3.03;;
1404;SDS011;697;51.114;6.542;2023-04-15T15:25:50;2.77;;;2.57;;
1404;SDS011;697;51.114;6.542;2023-04-15T15:28:16;2.90;;;2.60;;
1404;SDS011;697;51.114;6.542;2023-04-15T15:30:43;4.70;;;2.77;;